Nezperce, ID

9:58 PM PDT on October 22, 2014 (GMT -0700)
ITD Frei Hill ID US | Change Station
CLOSE
Current Station
Personal Weather Station
Location: Ferdinand, ID
Elevation: 3664 ft
Nearby Weather Stations

Elev 3664 ft 46.11 °N, 116.35 °W | Updated 58 minutes ago

Overcast
Overcast
56 °F
Feels Like 56 °F
N
24
Wind Variable Wind from SE
Gusts 26.0 mph

Today
High -- | Low -- °F
--% Chance of Precip.
Yesterday
High -- | Low -- °F
Precip. -- in
7:11 AM 5:46 PM
Waning Crescent, 1% visible
Pressure 29.92 in
Visibility 10.0 miles
Clouds Overcast 8000 ft
Dew Point 36 °F
Humidity 49%
Rainfall 0.00 in
Snow Depth Not available.
UV 0 out of 12
Pollen 2.90 out of 12
PM2.5 Good
Flu Activity Sporadic
METAR KGIC 230435Z AUTO 19018G22KT 10SM OVC080 15/M01 A2992 RMK AO1 T01511006

More Conditions Fewer Conditions

Pressure 29.92 in
Visibility 10.0 miles
Clouds Overcast 8000 ft
Dew Point 36 °F
Humidity 49%
Rainfall 0.00 in
Snow Depth Not available.
UV 0 out of 12
Pollen 2.90 out of 12
PM2.5 Good
Flu Activity Sporadic
METAR KGIC 230435Z AUTO 19018G22KT 10SM OVC080 15/M01 A2992 RMK AO1 T01511006

More Conditions Fewer Conditions

10-Day Weather Forecast

Almanac

Astronomy

Oct. 22, 2014 Rise Set
Actual Time 7:11 AM PDT 5:46 PM PDT
Civil Twilight 6:41 AM PDT 6:16 PM PDT
Nautical Twilight 6:06 AM PDT 6:51 PM PDT
Astronomical Twilight 5:31 AM PDT 7:26 PM PDT
Moon 5:53 AM PDT (10/22) 5:17 PM PDT (10/22)
Length of Visible Light 11h 35m
Length of Day
10h 34m
Tomorrow will be 3m 5s shorter.
Waning Crescent, 1% of the Moon is Illuminated
Oct 23
Waning Crescent
Oct 23
New
Oct 30
First Quarter
Nov 6
Full
Nov 14
Last Quarter

Yesterday's Extremes

State Highs State Lows

Community

WunderPhotos

Upload Photos

1,764,154 photos uploaded!

Nearby

Air Quality

  Air Quality AQ Index Pollutant
Current Good
PM2.5
Wednesday Good
PM2.5
Thursday Good
PM2.5
Friday Good
PM2.5

Snow Depth

Station Depth Elevation
Hemlock Butte 1 in 5810 ft
Elk Butte 0 in 5690 ft
Moscow Mountain 0 in 4700 ft
Sherwin 1 in 3200 ft
Crater Meadows 0 in 5960 ft

Earthquake Activity

City Distance Mag. Time & Date
No recent earthquake activity has been reported nearby.
Minimum magnitude displayed is 2.5.

Coastal Water Temperatures

Place Temperature
No Stations Reporting

Nearby Weather Stations